createdAt,value
2023-04-19T00:01:13.392Z,9.50
2023-04-19T00:03:41.935Z,8.57
2023-04-19T00:06:10.420Z,9.10
2023-04-19T00:08:38.786Z,11.30
2023-04-19T00:11:07.338Z,12.50
2023-04-19T00:13:35.740Z,10.60
2023-04-19T00:16:04.957Z,10.05
2023-04-19T00:18:34.705Z,8.23
2023-04-19T00:21:03.148Z,8.85
2023-04-19T00:23:31.536Z,9.52
2023-04-19T00:25:59.994Z,8.85
2023-04-19T00:28:28.316Z,9.75
2023-04-19T00:30:56.679Z,7.80
2023-04-19T00:33:25.233Z,9.52
2023-04-19T00:35:54.996Z,10.35
2023-04-19T00:38:23.386Z,11.23
2023-04-19T00:40:51.795Z,8.55
2023-04-19T00:43:20.301Z,8.05
2023-04-19T00:45:48.778Z,9.77
2023-04-19T00:48:17.182Z,7.78
2023-04-19T00:50:45.608Z,10.63
2023-04-19T00:53:15.429Z,8.93
2023-04-19T00:55:43.799Z,9.27
2023-04-19T00:58:12.249Z,9.35
2023-04-19T01:00:40.719Z,9.77
2023-04-19T01:03:10.086Z,8.02
2023-04-19T01:05:38.553Z,9.60
2023-04-19T01:08:08.408Z,9.85
2023-04-19T01:10:38.201Z,9.90
2023-04-19T01:13:06.531Z,7.72
2023-04-19T01:15:35.030Z,10.80
2023-04-19T01:18:03.541Z,8.65
2023-04-19T01:20:32.004Z,8.50
2023-04-19T01:23:01.837Z,9.10
2023-04-19T01:25:30.297Z,8.82
2023-04-19T01:27:58.686Z,10.88
2023-04-19T01:30:27.026Z,8.30
2023-04-19T01:32:55.413Z,7.95
2023-04-19T01:35:23.795Z,8.90
2023-04-19T01:37:55.487Z,7.75
2023-04-19T01:40:26.784Z,9.48
2023-04-19T01:42:55.269Z,10.05
2023-04-19T01:45:23.887Z,10.43
2023-04-19T01:47:52.606Z,10.85
2023-04-19T01:50:21.099Z,10.35
2023-04-19T01:52:49.445Z,7.35
2023-04-19T01:55:18.014Z,7.82
2023-04-19T01:57:47.730Z,9.85
2023-04-19T02:00:18.125Z,8.52
2023-04-19T02:02:46.659Z,8.60
2023-04-19T02:05:15.265Z,9.60
2023-04-19T02:07:43.605Z,9.45
2023-04-19T02:10:12.348Z,9.07
2023-04-19T02:12:42.064Z,7.20
2023-04-19T02:15:12.601Z,10.18
2023-04-19T02:17:41.553Z,7.75
2023-04-19T02:20:11.012Z,9.98
2023-04-19T02:22:39.379Z,9.15
2023-04-19T02:25:08.762Z,10.55
2023-04-19T02:27:37.151Z,9.32
2023-04-19T02:30:07.035Z,9.95
2023-04-19T02:32:36.830Z,8.77
2023-04-19T02:35:05.831Z,9.45
2023-04-19T02:37:34.230Z,9.93
2023-04-19T02:40:02.573Z,9.75
2023-04-19T02:42:31.075Z,8.90
2023-04-19T02:44:59.898Z,9.52
2023-04-19T02:47:28.408Z,9.05
2023-04-19T02:49:58.150Z,7.57
2023-04-19T02:52:27.997Z,9.57
2023-04-19T02:54:56.362Z,8.88
2023-04-19T02:57:24.749Z,7.60
2023-04-19T02:59:53.542Z,7.47
2023-04-19T03:02:22.007Z,8.35
2023-04-19T03:04:50.507Z,9.00
2023-04-19T03:07:20.621Z,8.23
2023-04-19T03:09:49.021Z,7.32
2023-04-19T03:12:17.328Z,10.65
2023-04-19T03:14:45.681Z,7.30
2023-04-19T03:17:14.397Z,7.18
2023-04-19T03:19:42.815Z,9.10
2023-04-19T03:22:11.185Z,8.40
2023-04-19T03:24:40.985Z,7.78
2023-04-19T03:27:09.366Z,7.35
2023-04-19T03:29:37.805Z,9.52
2023-04-19T03:32:06.436Z,9.00
2023-04-19T03:34:34.831Z,8.18
2023-04-19T03:37:03.225Z,7.07
2023-04-19T03:39:31.674Z,10.45
2023-04-19T03:42:01.446Z,9.73
2023-04-19T03:44:29.825Z,6.97
2023-04-19T03:46:58.223Z,7.28
2023-04-19T03:49:26.664Z,9.32
2023-04-19T03:51:55.046Z,8.48
2023-04-19T03:54:23.435Z,8.85
2023-04-19T03:56:51.882Z,9.27
2023-04-19T03:59:21.634Z,6.38
2023-04-19T04:01:50.181Z,9.00
2023-04-19T04:04:18.718Z,8.73
2023-04-19T04:06:47.402Z,6.72
2023-04-19T04:09:15.916Z,6.43
2023-04-19T04:11:44.334Z,10.38
2023-04-19T04:14:12.790Z,7.85
2023-04-19T04:16:42.842Z,6.35
2023-04-19T04:19:11.367Z,6.85
2023-04-19T04:21:39.785Z,7.25
2023-04-19T04:24:09.918Z,8.43
2023-04-19T04:26:39.526Z,8.27
2023-04-19T04:29:08.669Z,7.47
2023-04-19T04:31:37.083Z,6.93
2023-04-19T04:34:09.166Z,8.15
2023-04-19T04:36:37.739Z,8.15
2023-04-19T04:39:06.498Z,7.25
2023-04-19T04:41:36.090Z,7.22
2023-04-19T04:44:22.973Z,6.50
2023-04-19T04:46:51.704Z,6.88
2023-04-19T04:49:21.524Z,6.05
2023-04-19T04:51:49.949Z,6.38
2023-04-19T04:54:18.296Z,6.32
2023-04-19T04:56:46.717Z,7.43
2023-04-19T04:59:15.153Z,6.50
2023-04-19T05:01:43.714Z,6.80
2023-04-19T05:04:12.191Z,6.90
2023-04-19T05:06:42.350Z,7.18
2023-04-19T05:09:10.764Z,13.80
2023-04-19T05:11:39.203Z,11.63
2023-04-19T05:14:07.641Z,35.70
2023-04-19T05:16:36.128Z,27.38
2023-04-19T05:19:04.830Z,29.67
2023-04-19T05:21:34.905Z,18.23
2023-04-19T05:24:05.426Z,22.30
2023-04-19T05:26:33.893Z,21.98
2023-04-19T05:29:02.265Z,30.50
2023-04-19T05:31:30.685Z,20.20
2023-04-19T05:33:59.129Z,17.83
2023-04-19T05:36:28.282Z,20.17
2023-04-19T05:38:56.742Z,18.23
2023-04-19T05:41:26.665Z,19.80
2023-04-19T05:43:55.101Z,18.85
2023-04-19T05:46:23.508Z,19.10
2023-04-19T05:48:51.945Z,20.40
2023-04-19T05:51:20.346Z,17.83
2023-04-19T05:53:48.951Z,21.13
2023-04-19T05:56:17.386Z,17.52
2023-04-19T05:58:47.291Z,19.05
2023-04-19T06:01:16.478Z,19.27
2023-04-19T06:03:45.207Z,15.27
2023-04-19T06:06:13.674Z,13.23
2023-04-19T06:08:42.110Z,14.18
2023-04-19T06:11:20.142Z,14.25
2023-04-19T06:13:54.561Z,13.30
2023-04-19T06:16:23.226Z,12.57
2023-04-19T06:18:51.710Z,12.80
2023-04-19T06:21:20.125Z,14.50
2023-04-19T06:23:48.526Z,12.85
2023-04-19T06:26:16.980Z,11.63
2023-04-19T06:28:45.438Z,13.77
2023-04-19T06:31:15.222Z,14.48
2023-04-19T06:33:43.975Z,12.00
2023-04-19T06:36:12.487Z,13.10
2023-04-19T06:38:41.747Z,13.23
2023-04-19T06:41:10.548Z,12.55
2023-04-19T06:43:40.807Z,11.00
2023-04-19T06:46:10.024Z,13.93
2023-04-19T06:48:39.943Z,12.07
2023-04-19T06:51:08.495Z,11.82
2023-04-19T06:53:37.335Z,10.85
2023-04-19T06:56:06.804Z,12.02
2023-04-19T06:58:35.786Z,9.88
2023-04-19T07:01:05.339Z,11.35
2023-04-19T07:03:34.197Z,12.20
2023-04-19T07:06:04.211Z,15.63
2023-04-19T07:08:48.274Z,10.30
2023-04-19T07:11:18.057Z,9.85
2023-04-19T07:13:47.313Z,11.15
2023-04-19T07:16:15.856Z,8.80
2023-04-19T07:18:45.165Z,9.00
2023-04-19T07:21:14.988Z,8.23
2023-04-19T07:23:43.465Z,6.22
2023-04-19T07:26:12.076Z,10.13
2023-04-19T07:28:41.795Z,8.10
2023-04-19T07:31:16.098Z,5.60
2023-04-19T07:33:44.626Z,9.52
2023-04-19T07:36:14.500Z,7.28
2023-04-19T07:38:43.018Z,7.88
2023-04-19T07:41:11.460Z,9.70
2023-04-19T07:43:41.130Z,7.95
2023-04-19T07:46:14.041Z,9.55
2023-04-19T07:48:42.531Z,6.10
2023-04-19T07:51:12.429Z,8.27
2023-04-19T07:53:43.353Z,6.82
2023-04-19T07:56:13.056Z,6.95
2023-04-19T07:58:42.375Z,9.77
2023-04-19T08:01:12.602Z,7.55
2023-04-19T08:03:41.691Z,7.85
2023-04-19T08:06:10.220Z,5.75
2023-04-19T08:08:38.754Z,8.38
2023-04-19T08:11:08.646Z,9.05
2023-04-19T08:13:37.803Z,5.30
2023-04-19T08:18:39.252Z,6.80
2023-04-19T08:21:07.739Z,7.18
2023-04-19T08:23:47.294Z,5.90
2023-04-19T08:26:18.242Z,4.97
2023-04-19T08:28:46.754Z,8.52
2023-04-19T08:31:15.355Z,4.97
2023-04-19T08:33:43.821Z,5.75
2023-04-19T08:36:13.789Z,6.53
2023-04-19T08:38:46.751Z,5.25
2023-04-19T08:41:19.110Z,7.78
2023-04-19T08:43:47.550Z,7.32
2023-04-19T08:46:16.061Z,5.65
2023-04-19T08:48:45.109Z,6.75
2023-04-19T08:51:13.954Z,6.25
2023-04-19T08:53:42.399Z,5.53
2023-04-19T08:56:18.145Z,4.55
2023-04-19T08:59:07.592Z,6.95
2023-04-19T09:01:44.515Z,4.88
2023-04-19T09:06:44.764Z,4.88
2023-04-19T09:09:33.217Z,4.80
2023-04-19T09:12:07.110Z,7.13
2023-04-19T09:14:36.845Z,6.60
2023-04-19T09:17:17.933Z,4.55
2023-04-19T09:19:49.537Z,6.97
2023-04-19T09:22:18.306Z,6.30
2023-04-19T09:25:22.723Z,4.65
2023-04-19T09:27:37.557Z,5.57
2023-04-19T09:30:17.624Z,5.65
2023-04-19T09:32:52.844Z,5.63
2023-04-19T09:35:21.356Z,6.10
2023-04-19T09:40:32.964Z,4.65
2023-04-19T09:43:11.131Z,5.32
2023-04-19T09:45:47.910Z,4.85
2023-04-19T09:48:16.424Z,5.10
2023-04-19T09:50:59.621Z,4.07
2023-04-19T09:53:34.584Z,5.15
2023-04-19T09:56:05.413Z,5.38
2023-04-19T09:58:46.841Z,4.10
2023-04-19T10:01:20.311Z,4.30
2023-04-19T10:03:50.716Z,4.60
2023-04-19T10:08:52.313Z,4.65
2023-04-19T10:11:21.984Z,3.97
2023-04-19T10:13:50.700Z,4.65
2023-04-19T10:16:20.921Z,5.53
2023-04-19T10:18:50.441Z,4.00
2023-04-19T10:21:19.249Z,4.72
2023-04-19T10:23:47.702Z,5.22
2023-04-19T10:26:16.185Z,3.67
2023-04-19T10:28:44.568Z,3.92
2023-04-19T10:31:14.035Z,5.47
2023-04-19T10:33:43.895Z,4.72
2023-04-19T10:36:17.727Z,4.22
2023-04-19T10:38:48.375Z,4.55
2023-04-19T10:41:18.670Z,4.95
2023-04-19T10:43:48.579Z,4.22
2023-04-19T10:46:19.089Z,4.30
2023-04-19T10:48:55.589Z,3.67
2023-04-19T10:51:25.228Z,4.53
2023-04-19T10:53:58.618Z,7.30
2023-04-19T10:57:12.028Z,5.25
2023-04-19T10:59:43.040Z,4.80
2023-04-19T11:02:29.572Z,5.75
2023-04-19T11:05:03.989Z,3.85
2023-04-19T11:07:42.729Z,4.70
2023-04-19T11:10:12.479Z,4.57
2023-04-19T11:12:45.002Z,4.20
2023-04-19T11:15:13.418Z,5.20
2023-04-19T11:17:42.907Z,4.38
2023-04-19T11:20:14.782Z,4.25
2023-04-19T11:22:44.191Z,4.05
2023-04-19T11:25:13.942Z,4.03
2023-04-19T11:27:43.032Z,4.55
2023-04-19T11:30:13.405Z,4.10
2023-04-19T11:32:47.348Z,4.65
2023-04-19T11:35:19.308Z,5.05
2023-04-19T11:37:47.732Z,4.90
2023-04-19T11:40:17.086Z,5.72
2023-04-19T11:42:45.649Z,4.63
2023-04-19T11:45:25.946Z,4.50
2023-04-19T11:47:57.905Z,4.55
2023-04-19T11:50:38.960Z,3.85
2023-04-19T11:53:18.163Z,4.35
2023-04-19T11:55:47.814Z,4.07
2023-04-19T11:58:28.916Z,3.70
2023-04-19T12:01:00.508Z,3.95
2023-04-19T12:03:29.201Z,4.00
2023-04-19T12:06:00.399Z,4.25
2023-04-19T12:08:33.184Z,4.35
2023-04-19T12:11:03.229Z,3.75
2023-04-19T12:13:31.992Z,4.80
2023-04-19T12:16:00.468Z,4.18
2023-04-19T12:18:28.911Z,5.35
2023-04-19T12:21:00.160Z,4.50
2023-04-19T12:23:30.063Z,3.88
2023-04-19T12:25:58.866Z,4.78
2023-04-19T12:28:27.233Z,3.85
2023-04-19T12:30:55.690Z,3.78
2023-04-19T12:33:24.127Z,5.18
2023-04-19T12:35:52.482Z,4.05
2023-04-19T12:38:22.283Z,4.40
2023-04-19T12:40:50.655Z,4.45
2023-04-19T12:43:19.078Z,4.05
2023-04-19T12:45:47.534Z,3.70
2023-04-19T12:48:16.011Z,4.20
2023-04-19T12:50:44.410Z,4.10
2023-04-19T12:53:12.795Z,6.00
2023-04-19T12:55:43.066Z,4.50
2023-04-19T12:58:11.950Z,5.68
2023-04-19T13:00:40.343Z,4.72
2023-04-19T13:03:08.857Z,4.57
2023-04-19T13:05:37.315Z,4.18
2023-04-19T13:08:06.382Z,4.80
2023-04-19T13:10:34.805Z,6.03
2023-04-19T13:13:04.648Z,6.38
2023-04-19T13:15:34.340Z,4.70
2023-04-19T13:18:02.765Z,4.07
2023-04-19T13:20:31.245Z,5.32
2023-04-19T13:22:59.616Z,5.00
2023-04-19T13:25:28.025Z,5.20
2023-04-19T13:27:56.556Z,6.00
2023-04-19T13:30:26.356Z,5.15
2023-04-19T13:32:54.732Z,4.65
2023-04-19T13:35:23.256Z,5.32
2023-04-19T13:37:52.078Z,6.28
2023-04-19T13:40:20.739Z,4.82
2023-04-19T13:42:49.248Z,5.40
2023-04-19T13:45:17.690Z,4.90
2023-04-19T13:47:47.522Z,7.00
2023-04-19T13:50:16.247Z,6.35
2023-04-19T13:52:44.682Z,5.22
2023-04-19T13:55:13.080Z,6.05
2023-04-19T13:57:41.460Z,7.05
2023-04-19T14:00:11.307Z,5.38
2023-04-19T14:02:39.867Z,5.78
2023-04-19T14:05:11.923Z,5.63
2023-04-19T14:07:40.922Z,5.25
2023-04-19T14:10:11.182Z,6.35
2023-04-19T14:12:39.565Z,5.53
2023-04-19T14:15:09.512Z,8.32
2023-04-19T14:17:37.988Z,5.97
2023-04-19T14:20:11.172Z,6.30
2023-04-19T14:22:39.633Z,4.97
2023-04-19T14:25:08.874Z,7.72
2023-04-19T14:27:38.468Z,5.45
2023-04-19T14:30:10.243Z,6.20
2023-04-19T14:32:39.025Z,5.90
2023-04-19T14:35:08.870Z,5.60
2023-04-19T14:37:38.760Z,5.78
2023-04-19T14:40:09.120Z,6.47
2023-04-19T14:42:37.488Z,5.82
2023-04-19T14:45:07.396Z,7.72
2023-04-19T14:47:36.134Z,6.20
2023-04-19T14:50:04.563Z,6.68
2023-04-19T14:52:32.943Z,6.88
2023-04-19T14:55:02.721Z,11.82
2023-04-19T14:57:31.239Z,8.10
2023-04-19T15:00:01.206Z,6.07
2023-04-19T15:02:30.040Z,9.45
2023-04-19T15:04:58.776Z,6.22
2023-04-19T15:07:28.478Z,7.82
2023-04-19T15:09:56.956Z,6.40
2023-04-19T15:12:26.727Z,6.72
2023-04-19T15:14:55.125Z,6.45
2023-04-19T15:17:23.673Z,9.02
2023-04-19T15:19:52.075Z,6.43
2023-04-19T15:22:20.500Z,6.97
2023-04-19T15:24:48.892Z,6.70
2023-04-19T15:27:17.232Z,6.47
2023-04-19T15:29:48.146Z,7.30
2023-04-19T15:32:16.564Z,7.22
2023-04-19T15:34:44.946Z,6.85
2023-04-19T15:37:13.336Z,7.10
2023-04-19T15:39:41.715Z,6.55
2023-04-19T15:42:10.166Z,6.05
2023-04-19T15:44:38.563Z,6.25
2023-04-19T15:47:08.420Z,8.23
2023-04-19T15:49:36.844Z,8.02
2023-04-19T15:52:05.433Z,6.60
2023-04-19T15:54:34.296Z,6.10
2023-04-19T15:57:02.880Z,8.63
2023-04-19T15:59:31.654Z,6.70
2023-04-19T16:02:00.150Z,6.63
2023-04-19T16:07:00.019Z,6.95
2023-04-19T16:09:28.660Z,6.30
2023-04-19T16:11:57.111Z,6.55
2023-04-19T16:14:25.573Z,7.63
2023-04-19T16:16:54.556Z,7.30
2023-04-19T16:19:23.643Z,6.85
2023-04-19T16:21:53.418Z,6.18
2023-04-19T16:24:21.860Z,6.40
2023-04-19T16:26:50.324Z,6.63
2023-04-19T16:29:19.154Z,6.60
2023-04-19T16:31:49.762Z,6.70
2023-04-19T16:34:21.297Z,6.53
2023-04-19T16:36:49.679Z,7.15
2023-04-19T16:39:19.508Z,6.53
2023-04-19T16:41:47.984Z,7.15
2023-04-19T16:44:16.370Z,7.32
2023-04-19T16:46:44.769Z,6.53
2023-04-19T16:49:13.163Z,6.10
2023-04-19T16:51:41.640Z,5.55
2023-04-19T16:54:10.044Z,6.40
2023-04-19T16:56:39.748Z,7.97
2023-04-19T16:59:08.204Z,6.60
2023-04-19T17:01:36.648Z,6.88
2023-04-19T17:04:05.277Z,6.28
2023-04-19T17:06:33.761Z,9.65
2023-04-19T17:09:04.970Z,6.53
2023-04-19T17:11:33.434Z,6.28
2023-04-19T17:14:03.336Z,6.93
2023-04-19T17:16:31.692Z,7.93
2023-04-19T17:19:00.200Z,6.97
2023-04-19T17:21:28.715Z,6.25
2023-04-19T17:23:57.101Z,6.10
2023-04-19T17:26:25.884Z,7.53
2023-04-19T17:28:54.389Z,6.43
2023-04-19T17:31:24.349Z,6.00
2023-04-19T17:33:52.744Z,6.35
2023-04-19T17:36:21.163Z,6.65
2023-04-19T17:38:49.579Z,7.15
2023-04-19T17:41:18.055Z,8.55
2023-04-19T17:43:46.670Z,6.57
2023-04-19T17:46:15.256Z,6.60
2023-04-19T17:48:45.042Z,6.68
2023-04-19T17:51:13.436Z,6.28
2023-04-19T17:53:41.862Z,6.63
2023-04-19T17:56:10.268Z,6.50
2023-04-19T17:58:38.651Z,7.38
2023-04-19T18:01:08.924Z,6.63
2023-04-19T18:03:37.515Z,6.40
2023-04-19T18:06:09.336Z,6.75
2023-04-19T18:08:37.781Z,9.50
2023-04-19T18:11:07.041Z,7.22
2023-04-19T18:13:35.459Z,6.50
2023-04-19T18:16:05.133Z,8.63
2023-04-19T18:18:33.547Z,8.50
2023-04-19T18:21:07.246Z,9.93
2023-04-19T18:23:35.612Z,6.82
2023-04-19T18:26:04.404Z,7.85
2023-04-19T18:28:35.455Z,11.52
2023-04-19T18:31:03.963Z,9.50
2023-04-19T18:33:32.388Z,10.88
2023-04-19T18:36:00.869Z,9.43
2023-04-19T18:38:31.253Z,6.78
2023-04-19T18:40:59.979Z,9.43
2023-04-19T18:43:30.810Z,7.10
2023-04-19T18:46:00.347Z,8.45
2023-04-19T18:48:29.590Z,9.00
2023-04-19T18:50:59.434Z,10.13
2023-04-19T18:53:30.878Z,8.48
2023-04-19T18:55:59.548Z,8.77
2023-04-19T18:58:28.274Z,9.65
2023-04-19T19:00:56.959Z,8.85
2023-04-19T19:05:58.886Z,11.55
2023-04-19T19:08:27.736Z,9.35
2023-04-19T19:11:18.262Z,10.60
2023-04-19T19:13:46.076Z,12.60
2023-04-19T19:16:15.001Z,13.90
2023-04-19T19:18:45.807Z,14.35
2023-04-19T19:21:14.239Z,10.38
2023-04-19T19:23:42.968Z,14.60
2023-04-19T19:26:14.216Z,11.80
2023-04-19T19:28:43.272Z,13.65
2023-04-19T19:31:11.846Z,12.23
2023-04-19T19:33:40.924Z,13.30
2023-04-19T19:36:09.561Z,18.85
2023-04-19T19:38:38.678Z,13.10
2023-04-19T19:41:55.159Z,16.05
2023-04-19T19:43:56.934Z,11.70
2023-04-19T19:46:25.864Z,12.10
2023-04-19T19:48:57.604Z,12.45
2023-04-19T19:51:47.541Z,13.13
2023-04-19T19:54:14.582Z,11.52
2023-04-19T19:57:08.232Z,20.25
2023-04-19T19:59:34.937Z,15.73
2023-04-19T20:02:05.775Z,15.63
2023-04-19T20:04:35.517Z,14.85
2023-04-19T20:09:35.841Z,16.25
2023-04-19T20:12:04.488Z,13.18
2023-04-19T20:14:36.893Z,12.80
2023-04-19T20:17:05.511Z,13.20
2023-04-19T20:19:34.124Z,12.27
2023-04-19T20:22:02.511Z,12.77
2023-04-19T20:24:31.972Z,13.73
2023-04-19T20:27:01.336Z,14.77
2023-04-19T20:29:29.742Z,12.85
2023-04-19T20:31:59.547Z,14.50
2023-04-19T20:34:28.026Z,15.07
2023-04-19T20:36:56.965Z,12.27
2023-04-19T20:39:25.371Z,14.32
2023-04-19T20:41:54.059Z,14.98
2023-04-19T20:44:23.171Z,11.82
2023-04-19T20:46:52.532Z,12.68
2023-04-19T20:49:22.332Z,12.50
2023-04-19T20:51:51.567Z,15.48
2023-04-19T20:54:19.988Z,12.55
2023-04-19T20:56:48.936Z,11.85
2023-04-19T20:59:17.567Z,12.25
2023-04-19T21:01:46.193Z,11.90
2023-04-19T21:04:14.792Z,11.48
2023-04-19T21:06:44.708Z,14.38
2023-04-19T21:09:13.196Z,12.43
2023-04-19T21:11:41.672Z,13.35
2023-04-19T21:14:10.101Z,13.20
2023-04-19T21:16:38.553Z,13.68
2023-04-19T21:19:07.527Z,12.80
2023-04-19T21:21:35.945Z,14.50
2023-04-19T21:24:05.834Z,13.10
2023-04-19T21:26:34.381Z,14.65
2023-04-19T21:29:03.016Z,13.15
2023-04-19T21:31:32.095Z,11.20
2023-04-19T21:34:00.554Z,11.10
2023-04-19T21:36:28.982Z,10.48
2023-04-19T21:38:57.389Z,13.52
2023-04-19T21:41:27.213Z,12.13
2023-04-19T21:43:55.615Z,12.23
2023-04-19T21:46:24.202Z,15.20
2023-04-19T21:48:55.028Z,11.65
2023-04-19T21:51:24.282Z,14.02
2023-04-19T21:53:52.616Z,13.68
2023-04-19T21:56:20.983Z,14.25
2023-04-19T21:58:50.722Z,15.57
2023-04-19T22:01:19.294Z,14.20
2023-04-19T22:03:47.921Z,12.82
2023-04-19T22:06:17.222Z,12.32
2023-04-19T22:08:48.488Z,10.60
2023-04-19T22:11:17.186Z,16.35
2023-04-19T22:13:46.263Z,11.55
2023-04-19T22:16:16.777Z,14.38
2023-04-19T22:18:45.299Z,13.40
2023-04-19T22:21:13.709Z,14.25
2023-04-19T22:23:42.140Z,12.98
2023-04-19T22:26:10.599Z,15.30
2023-04-19T22:28:39.081Z,11.52
2023-04-19T22:31:07.543Z,12.63
2023-04-19T22:33:37.379Z,12.60
2023-04-19T22:36:06.520Z,11.70
2023-04-19T22:41:10.493Z,10.35
2023-04-19T22:43:39.041Z,11.70
2023-04-19T22:46:07.526Z,13.82
2023-04-19T22:48:37.935Z,11.20
2023-04-19T22:51:06.549Z,11.30
2023-04-19T22:53:35.009Z,12.75
2023-04-19T22:56:03.316Z,11.95
2023-04-19T22:58:31.987Z,9.75
2023-04-19T23:01:00.510Z,11.40
2023-04-19T23:03:28.876Z,13.63
2023-04-19T23:05:58.970Z,12.15
2023-04-19T23:08:27.704Z,13.57
2023-04-19T23:10:56.050Z,13.73
2023-04-19T23:13:24.405Z,14.52
2023-04-19T23:15:52.901Z,12.13
2023-04-19T23:18:21.831Z,11.38
2023-04-19T23:20:50.282Z,12.73
2023-04-19T23:23:20.862Z,12.20
2023-04-19T23:25:49.187Z,11.85
2023-04-19T23:28:17.600Z,11.88
2023-04-19T23:30:46.073Z,12.05
2023-04-19T23:33:14.463Z,11.73
2023-04-19T23:35:42.869Z,12.25
2023-04-19T23:38:11.349Z,13.93
2023-04-19T23:40:41.354Z,11.68
2023-04-19T23:43:09.726Z,12.32
2023-04-19T23:45:38.154Z,11.57
2023-04-19T23:48:07.323Z,14.13
2023-04-19T23:50:35.752Z,10.80
2023-04-19T23:53:05.638Z,12.95
2023-04-19T23:55:34.033Z,13.15
2023-04-19T23:58:03.814Z,14.18
